Time;durP1;ratioP1;P1;durP2;ratioP2;P2;SDS_P1;SDS_P2;PMS_P1;PMS_P2;Temp;Humidity;BMP_temperature;BMP_pressure;BME280_temperature;BME280_humidity;BME280_pressure;Samples;Min_cycle;Max_cycle;Signal;HPM_P1;HPM_P2
2021/08/28 00:01:45;;;;;;;3.85;3.02;;;;;;;9.91;100.00;92924.12;1819741;77;21080;-89
2021/08/28 00:04:12;;;;;;;5.05;3.83;;;;;;;9.93;100.00;92924.50;1817247;74;21072;-91
2021/08/28 00:06:41;;;;;;;4.58;3.47;;;;;;;9.94;100.00;92925.45;1909104;74;21009;-91
2021/08/28 00:09:09;;;;;;;3.67;3.30;;;;;;;9.95;100.00;92925.63;1841559;74;21085;-90
2021/08/28 00:11:37;;;;;;;5.35;3.70;;;;;;;9.96;100.00;92925.03;1846266;75;21066;-91
2021/08/28 00:14:04;;;;;;;4.03;3.00;;;;;;;9.95;100.00;92924.27;1839085;74;21033;-90
2021/08/28 00:16:30;;;;;;;5.12;3.90;;;;;;;9.96;100.00;92915.53;1856892;75;21020;-91
2021/08/28 00:18:59;;;;;;;4.35;3.77;;;;;;;9.91;100.00;92915.38;1829084;76;21542;-89
2021/08/28 00:21:26;;;;;;;5.65;3.17;;;;;;;9.89;100.00;92919.66;1862779;75;22506;-89
2021/08/28 00:23:52;;;;;;;4.10;3.08;;;;;;;9.88;100.00;92928.41;1848924;75;21100;-90
2021/08/28 00:26:19;;;;;;;3.27;2.70;;;;;;;9.89;100.00;92930.53;1845420;75;21013;-93
2021/08/28 00:28:45;;;;;;;4.08;3.55;;;;;;;9.87;100.00;92928.81;1841625;75;21037;-91
2021/08/28 00:31:12;;;;;;;4.95;3.27;;;;;;;9.79;100.00;92935.48;1842816;74;21053;-88
2021/08/28 00:33:38;;;;;;;3.58;2.83;;;;;;;9.78;100.00;92938.80;1882885;74;22288;-90
2021/08/28 00:36:06;;;;;;;5.05;3.37;;;;;;;9.80;100.00;92931.00;1835696;73;20962;-91
2021/08/28 00:38:32;;;;;;;4.10;3.37;;;;;;;9.84;100.00;92946.67;1873424;74;21028;-91
2021/08/28 00:40:59;;;;;;;4.35;2.85;;;;;;;9.86;100.00;92947.06;1876747;73;21270;-91
2021/08/28 00:43:27;;;;;;;4.00;2.92;;;;;;;9.87;100.00;92937.73;1836816;75;21152;-90
2021/08/28 00:45:53;;;;;;;6.90;3.62;;;;;;;9.86;100.00;92940.27;1863478;75;21076;-90
2021/08/28 00:48:20;;;;;;;3.65;3.12;;;;;;;9.87;100.00;92947.23;1881607;74;21607;-90
2021/08/28 00:50:46;;;;;;;4.12;3.33;;;;;;;9.88;100.00;92941.98;1854006;74;20986;-91
2021/08/28 00:53:15;;;;;;;4.60;2.92;;;;;;;9.87;100.00;92943.75;1850403;75;21081;-90
2021/08/28 00:55:46;;;;;;;4.45;3.27;;;;;;;9.87;100.00;92937.73;1850704;75;21107;-91
2021/08/28 00:58:13;;;;;;;6.35;2.75;;;;;;;9.89;100.00;92946.27;1903883;74;21052;-88
2021/08/28 01:00:55;;;;;;;3.22;2.67;;;;;;;9.89;100.00;92944.91;1852458;75;21150;-89
2021/08/28 01:03:25;;;;;;;3.25;2.83;;;;;;;9.88;100.00;92936.55;1838360;75;21432;-90
2021/08/28 01:06:21;;;;;;;3.42;2.60;;;;;;;9.86;100.00;92942.98;1844209;75;21181;-90
2021/08/28 01:08:59;;;;;;;3.10;2.70;;;;;;;9.84;100.00;92938.53;1824158;76;21053;-89
2021/08/28 01:11:50;;;;;;;2.40;2.20;;;;;;;9.85;100.00;92944.73;1836998;76;21078;-87
2021/08/28 01:14:22;;;;;;;2.55;2.15;;;;;;;9.85;100.00;92933.27;1824969;76;21037;-89
2021/08/28 01:16:55;;;;;;;2.50;2.30;;;;;;;9.84;100.00;92933.69;1854436;74;20958;-91
2021/08/28 01:19:43;;;;;;;3.30;2.47;;;;;;;9.79;100.00;92937.61;1800128;77;21038;-90
2021/08/28 01:22:14;;;;;;;2.33;2.10;;;;;;;9.75;100.00;92935.52;1898314;74;21017;-89
2021/08/28 01:24:46;;;;;;;6.67;2.40;;;;;;;9.72;100.00;92936.31;1878376;75;21096;-88
2021/08/28 01:27:49;;;;;;;2.20;1.90;;;;;;;9.74;100.00;92933.95;1899377;74;21060;-92
2021/08/28 01:30:16;;;;;;;3.22;2.42;;;;;;;9.66;100.00;92927.81;1850268;74;21115;-91
2021/08/28 01:32:44;;;;;;;3.52;2.67;;;;;;;9.64;100.00;92940.27;1830381;76;21306;-89
2021/08/28 01:35:12;;;;;;;2.72;2.12;;;;;;;9.62;100.00;92932.50;1854511;75;21077;-87
2021/08/28 01:37:43;;;;;;;3.17;2.70;;;;;;;9.65;100.00;92936.37;1819576;77;21096;-88
2021/08/28 01:40:28;;;;;;;2.65;2.35;;;;;;;9.68;100.00;92932.27;1814214;76;21030;-91
2021/08/28 01:42:57;;;;;;;4.37;2.00;;;;;;;9.71;100.00;92930.70;1814038;77;20986;-90
2021/08/28 01:45:25;;;;;;;3.00;2.27;;;;;;;9.72;100.00;92927.58;1841085;75;21609;-89
2021/08/28 01:47:54;;;;;;;3.77;2.22;;;;;;;9.70;100.00;92926.42;1814223;76;21064;-87
2021/08/28 01:50:23;;;;;;;4.50;2.55;;;;;;;9.70;100.00;92932.66;1829149;76;21068;-88
2021/08/28 01:52:50;;;;;;;3.75;2.02;;;;;;;9.72;100.00;92933.01;1850549;74;21136;-89
2021/08/28 01:55:18;;;;;;;2.27;1.95;;;;;;;9.73;100.00;92944.05;1832577;75;21709;-91
2021/08/28 01:57:52;;;;;;;2.13;1.93;;;;;;;9.71;100.00;92931.47;1877309;74;21591;-92
2021/08/28 02:00:38;;;;;;;2.62;2.25;;;;;;;9.66;100.00;92937.31;1879012;74;21025;-89
2021/08/28 02:03:05;;;;;;;2.87;1.70;;;;;;;9.65;100.00;92952.66;1883148;74;21084;-91
2021/08/28 02:05:33;;;;;;;2.50;2.30;;;;;;;9.67;100.00;92948.97;1874689;74;21033;-90
2021/08/28 02:08:05;;;;;;;3.08;2.72;;;;;;;9.69;100.00;92946.02;1837694;75;21009;-88
2021/08/28 02:13:03;;;;;;;4.03;2.60;;;;;;;9.68;100.00;92942.36;1818127;77;21547;-91
2021/08/28 02:15:35;;;;;;;5.42;3.15;;;;;;;9.67;100.00;92953.81;1843471;75;21038;-90
2021/08/28 02:18:31;;;;;;;3.27;2.60;;;;;;;9.72;100.00;92955.31;1839974;75;20997;-88
2021/08/28 02:21:00;;;;;;;8.03;2.70;;;;;;;9.77;100.00;92963.61;1862801;75;21045;-88
2021/08/28 02:23:41;;;;;;;3.42;2.70;;;;;;;9.80;100.00;92960.87;1861571;75;21410;-90
2021/08/28 02:26:22;;;;;;;3.30;2.40;;;;;;;9.84;100.00;92967.63;1870222;74;20995;-90
2021/08/28 02:28:55;;;;;;;5.00;2.50;;;;;;;9.84;100.00;92965.69;1899154;74;21089;-88
2021/08/28 02:31:24;;;;;;;3.20;2.40;;;;;;;9.83;100.00;92964.73;1856419;75;21082;-89
2021/08/28 02:33:51;;;;;;;2.65;2.35;;;;;;;9.84;100.00;92966.27;1854943;75;20972;-91
2021/08/28 02:39:28;;;;;;;2.40;2.20;;;;;;;9.90;100.00;92954.58;1819439;77;28834;-88
2021/08/28 02:41:55;;;;;;;6.08;2.90;;;;;;;9.84;100.00;92963.56;1751717;80;21120;-89
2021/08/28 02:44:25;;;;;;;3.15;2.80;;;;;;;9.80;100.00;92960.10;1761044;79;21121;-91
2021/08/28 02:46:53;;;;;;;3.80;1.77;;;;;;;9.69;100.00;92962.31;1763323;79;21100;-90
2021/08/28 02:49:21;;;;;;;2.95;2.65;;;;;;;9.60;100.00;92960.66;1756619;78;21135;-88
2021/08/28 02:51:50;;;;;;;3.40;3.05;;;;;;;9.61;100.00;92968.20;1768198;79;21032;-91
2021/08/28 02:54:19;;;;;;;2.77;2.27;;;;;;;9.62;100.00;92967.02;1780197;78;21048;-88
2021/08/28 02:56:48;;;;;;;6.05;2.10;;;;;;;9.62;100.00;92966.44;1780598;78;21779;-88
2021/08/28 03:01:40;;;;;;;2.95;2.52;;;;;;;9.72;100.00;92968.89;1850374;75;29064;-87
2021/08/28 03:04:14;;;;;;;2.60;2.40;;;;;;;9.73;100.00;92979.34;1839653;75;21073;-87
2021/08/28 03:06:42;;;;;;;2.52;2.10;;;;;;;9.76;100.00;92975.06;1804992;77;21053;-88
2021/08/28 03:09:10;;;;;;;3.25;2.12;;;;;;;9.79;100.00;92969.43;1817168;77;21051;-89
2021/08/28 03:11:37;;;;;;;2.90;2.60;;;;;;;9.78;100.00;92972.73;1739690;77;21018;-88
2021/08/28 03:14:05;;;;;;;4.12;2.52;;;;;;;9.77;100.00;92975.24;1835514;77;21076;-89
2021/08/28 03:16:33;;;;;;;2.10;1.90;;;;;;;9.77;100.00;92980.67;1833497;76;21046;-87
2021/08/28 03:19:02;;;;;;;2.77;2.02;;;;;;;9.78;100.00;92978.16;1768740;77;21582;-88
2021/08/28 03:21:31;;;;;;;3.05;2.75;;;;;;;9.80;100.00;92977.16;1770543;79;21077;-89
2021/08/28 03:23:58;;;;;;;2.98;2.33;;;;;;;9.83;100.00;92975.60;1754410;80;21086;-90
2021/08/28 03:26:25;;;;;;;3.80;2.62;;;;;;;9.80;100.00;92976.39;1744271;80;21052;-87
2021/08/28 03:28:52;;;;;;;3.95;2.30;;;;;;;9.77;100.00;92988.05;1730560;80;21560;-87
2021/08/28 03:31:19;;;;;;;5.35;3.45;;;;;;;9.75;100.00;92988.46;1771083;79;21626;-89
2021/08/28 03:33:46;;;;;;;4.42;2.62;;;;;;;9.75;100.00;92984.39;1720343;80;21401;-89
2021/08/28 03:36:15;;;;;;;3.55;2.75;;;;;;;9.77;100.00;92987.46;1760820;79;20985;-88
2021/08/28 03:38:43;;;;;;;3.98;2.08;;;;;;;9.77;100.00;92983.39;1782986;78;21052;-88
2021/08/28 03:41:10;;;;;;;3.27;2.22;;;;;;;9.77;100.00;92982.03;1792827;77;21038;-89
2021/08/28 03:43:40;;;;;;;3.17;2.60;;;;;;;9.75;100.00;92983.03;1792585;78;21045;-88
2021/08/28 03:46:08;;;;;;;3.58;2.17;;;;;;;9.73;100.00;92994.27;1726207;78;21025;-88
2021/08/28 03:48:39;;;;;;;2.50;2.30;;;;;;;9.73;100.00;93001.06;1745122;80;21039;-90
2021/08/28 03:51:07;;;;;;;2.27;2.00;;;;;;;9.71;100.00;92996.63;1798062;77;21065;-88
2021/08/28 03:53:36;;;;;;;3.22;2.00;;;;;;;9.70;100.00;92996.45;1839451;75;21000;-88
2021/08/28 03:56:05;;;;;;;3.27;2.72;;;;;;;9.69;100.00;92994.89;1845491;75;20974;-90
2021/08/28 03:58:34;;;;;;;3.62;3.00;;;;;;;9.68;100.00;92997.42;1823652;76;21526;-90
2021/08/28 04:01:01;;;;;;;3.40;2.58;;;;;;;9.71;100.00;92998.58;1788599;77;21098;-91
2021/08/28 04:03:28;;;;;;;2.55;2.30;;;;;;;9.75;100.00;93000.68;1804248;76;21046;-91
2021/08/28 04:05:54;;;;;;;3.27;2.40;;;;;;;9.79;100.00;92999.30;1828417;77;21037;-88
2021/08/28 04:08:22;;;;;;;2.95;2.40;;;;;;;9.82;100.00;92996.55;1786424;76;21126;-89
2021/08/28 04:10:50;;;;;;;2.95;2.62;;;;;;;9.86;100.00;92993.81;1773430;79;21065;-90
2021/08/28 04:13:19;;;;;;;2.20;2.00;;;;;;;9.89;100.00;93000.58;1798240;78;21058;-92
2021/08/28 04:15:45;;;;;;;2.10;1.90;;;;;;;9.93;100.00;93012.17;1795223;77;21025;-87
2021/08/28 04:18:14;;;;;;;2.08;1.85;;;;;;;9.94;100.00;93001.49;1766389;79;22387;-89
2021/08/28 04:20:42;;;;;;;2.12;1.95;;;;;;;9.95;100.00;92992.75;1795547;77;21136;-89
2021/08/28 04:23:11;;;;;;;2.95;2.45;;;;;;;9.98;100.00;92997.39;1826810;76;20920;-90
2021/08/28 04:25:40;;;;;;;2.83;2.62;;;;;;;10.02;100.00;92994.05;1802597;77;20998;-89
2021/08/28 04:28:11;;;;;;;2.60;2.22;;;;;;;10.06;100.00;93000.23;1812456;78;21026;-89
2021/08/28 04:30:38;;;;;;;2.62;2.42;;;;;;;10.09;100.00;92993.23;1823306;76;21463;-87
2021/08/28 04:33:07;;;;;;;2.40;2.10;;;;;;;10.07;100.00;92989.54;1806019;76;21259;-88
2021/08/28 04:35:35;;;;;;;5.45;4.67;;;;;;;10.09;100.00;92989.16;1794817;77;21013;-91
2021/08/28 04:38:04;;;;;;;8.88;5.97;;;;;;;10.14;100.00;92998.22;1802387;77;20939;-88
2021/08/28 04:40:35;;;;;;;5.78;4.67;;;;;;;10.18;100.00;92998.95;1826951;77;20995;-91
2021/08/28 04:43:02;;;;;;;4.40;4.00;;;;;;;10.21;100.00;93001.64;1786533;78;21058;-88
2021/08/28 04:45:33;;;;;;;3.92;3.52;;;;;;;10.23;100.00;93002.61;1762202;79;21636;-88
2021/08/28 04:48:20;;;;;;;5.42;4.92;;;;;;;10.24;100.00;93006.09;1685930;79;21060;-89
2021/08/28 04:50:48;;;;;;;4.80;4.37;;;;;;;10.28;100.00;93007.62;1757235;79;21147;-90
2021/08/28 04:53:15;;;;;;;5.05;4.62;;;;;;;10.39;100.00;93011.61;1813781;77;21070;-90
2021/08/28 04:55:42;;;;;;;4.05;3.70;;;;;;;10.49;100.00;93012.66;1774991;79;21128;-88
2021/08/28 04:58:09;;;;;;;5.83;4.20;;;;;;;10.53;100.00;93021.55;1790980;78;22186;-87
2021/08/28 05:00:38;;;;;;;4.83;3.83;;;;;;;10.54;100.00;93025.83;1774822;78;21097;-91
2021/08/28 05:03:11;;;;;;;4.78;4.25;;;;;;;10.53;100.00;93035.94;1752134;78;20985;-88
2021/08/28 05:05:38;;;;;;;4.53;4.10;;;;;;;10.51;100.00;93042.36;1725514;80;21061;-90
2021/08/28 05:08:08;;;;;;;5.72;4.45;;;;;;;10.54;100.00;93039.42;1750919;79;21102;-89
2021/08/28 05:10:35;;;;;;;7.00;5.35;;;;;;;10.62;100.00;93025.34;1814106;77;21055;-91
2021/08/28 05:13:02;;;;;;;6.65;4.95;;;;;;;10.72;100.00;93029.70;1800964;77;21026;-93
2021/08/28 05:15:31;;;;;;;5.20;3.35;;;;;;;10.75;100.00;93029.67;1786335;76;21061;-90
2021/08/28 05:18:05;;;;;;;7.70;4.03;;;;;;;10.78;100.00;93034.89;1754042;79;21136;-91
2021/08/28 05:20:30;;;;;;;5.25;3.80;;;;;;;10.73;99.63;93038.84;1737839;80;21042;-89
2021/08/28 05:22:58;;;;;;;3.87;2.80;;;;;;;10.71;99.61;93042.53;1757380;79;21847;-89
2021/08/28 05:25:32;;;;;;;4.37;3.10;;;;;;;10.83;99.78;93041.23;1783901;76;21456;-91
2021/08/28 05:28:05;;;;;;;3.42;2.83;;;;;;;11.27;99.29;93045.78;1792662;76;21053;-88
2021/08/28 05:30:32;;;;;;;2.85;2.35;;;;;;;11.85;98.54;93043.87;1769105;77;21046;-88
2021/08/28 05:32:59;;;;;;;4.25;3.17;;;;;;;12.53;95.09;93040.05;1750742;79;21168;-91
2021/08/28 05:35:26;;;;;;;3.65;2.55;;;;;;;13.10;92.06;93045.81;1775091;78;21270;-88
2021/08/28 05:38:03;;;;;;;2.92;2.65;;;;;;;13.54;88.38;93042.43;1743600;79;20995;-89
2021/08/28 05:40:32;;;;;;;3.00;2.70;;;;;;;13.79;85.04;93042.47;1722366;80;21071;-91
2021/08/28 05:42:58;;;;;;;3.72;2.87;;;;;;;13.91;80.70;93042.41;1792214;78;21499;-93
2021/08/28 05:45:27;;;;;;;4.75;3.40;;;;;;;13.87;80.41;93043.09;1791814;77;21094;-88
2021/08/28 05:47:54;;;;;;;2.22;1.95;;;;;;;13.88;81.27;93047.34;1744834;78;21123;-88
2021/08/28 05:50:25;;;;;;;3.00;2.55;;;;;;;14.00;81.35;93054.91;1791157;78;21116;-89
2021/08/28 05:52:52;;;;;;;3.25;2.62;;;;;;;14.22;81.94;93051.84;1790457;78;21094;-91
2021/08/28 05:55:20;;;;;;;3.62;2.10;;;;;;;14.44;81.82;93060.31;1797962;77;21124;-90
2021/08/28 05:57:53;;;;;;;3.72;1.80;;;;;;;14.58;79.73;93053.73;1800407;77;21088;-89
2021/08/28 06:14:21;;;;;;;1.62;1.37;;;;;;;14.94;72.89;93052.84;1725932;80;21226;-91
2021/08/28 06:16:50;;;;;;;1.87;1.77;;;;;;;14.92;71.84;93051.88;1723729;81;21096;-89
2021/08/28 06:19:20;;;;;;;1.45;1.35;;;;;;;15.08;72.25;93053.04;1737264;80;21052;-91
2021/08/28 06:21:54;;;;;;;1.65;1.55;;;;;;;15.18;71.36;93048.64;1728220;80;21160;-90
2021/08/28 06:24:24;;;;;;;1.50;1.40;;;;;;;15.21;69.46;93044.28;1748788;76;21116;-88
2021/08/28 06:27:03;;;;;;;1.50;1.40;;;;;;;14.99;68.01;93042.11;1812755;77;21013;-88
2021/08/28 06:29:30;;;;;;;2.27;1.65;;;;;;;14.66;68.37;93040.03;1743496;79;21144;-89
2021/08/28 06:31:57;;;;;;;2.70;1.50;;;;;;;14.38;69.29;93039.37;1814602;77;22061;-91
2021/08/28 06:34:24;;;;;;;1.92;1.60;;;;;;;14.23;71.33;93035.60;1783062;77;21081;-90
2021/08/28 06:36:52;;;;;;;1.62;1.52;;;;;;;14.26;72.00;93041.59;1795621;77;21108;-89
2021/08/28 06:39:35;;;;;;;2.95;1.35;;;;;;;14.52;72.39;93032.21;1718931;78;21077;-92
2021/08/28 06:42:20;;;;;;;1.67;1.57;;;;;;;14.95;68.70;93040.08;1793003;78;22449;-89
2021/08/28 06:45:05;;;;;;;;;;;;;;;15.29;66.29;93041.51;1764817;79;22450;-87
2021/08/28 06:47:51;;;;;;;;;;;;;;;15.43;67.23;93038.38;1761205;80;20195;-88
2021/08/28 06:50:31;;;;;;;1.90;1.80;;;;;;;15.59;67.85;93032.05;1733369;80;20219;-88
2021/08/28 06:53:19;;;;;;;2.67;2.08;;;;;;;15.66;67.01;93026.98;1754228;78;21084;-88
2021/08/28 06:56:02;;;;;;;3.27;2.33;;;;;;;15.70;67.85;93033.13;1782251;78;21054;-89
2021/08/28 06:58:38;;;;;;;3.00;1.85;;;;;;;15.71;68.04;93036.80;1722721;79;21118;-89
2021/08/28 07:01:16;;;;;;;1.40;1.20;;;;;;;15.66;66.38;93046.94;1743116;79;21035;-90
2021/08/28 07:03:47;;;;;;;1.90;1.80;;;;;;;15.40;64.13;93037.87;1734956;80;21054;-89
2021/08/28 07:06:17;;;;;;;1.47;1.37;;;;;;;15.10;65.45;93037.72;1783513;77;21366;-89
2021/08/28 07:08:46;;;;;;;1.80;1.65;;;;;;;14.88;66.78;93038.12;1820479;77;21116;-91
2021/08/28 07:11:16;;;;;;;1.77;1.67;;;;;;;14.75;67.59;93040.21;1800173;77;21454;-89
2021/08/28 07:13:45;;;;;;;1.72;1.60;;;;;;;14.71;68.21;93037.41;1760221;79;21026;-90
2021/08/28 07:16:12;;;;;;;1.57;1.47;;;;;;;14.71;69.07;93037.41;1779419;77;21083;-86
2021/08/28 07:18:40;;;;;;;1.62;1.52;;;;;;;14.70;68.87;93042.08;1775267;79;21362;-88
2021/08/28 07:21:06;;;;;;;4.00;2.22;;;;;;;14.67;68.70;93044.91;1788402;77;21084;-88
2021/08/28 07:23:33;;;;;;;3.52;3.15;;;;;;;14.61;66.78;93048.78;1756488;78;21099;-90
2021/08/28 07:26:05;;;;;;;2.30;2.10;;;;;;;14.53;67.78;93037.24;1730868;79;21109;-92
2021/08/28 07:28:33;;;;;;;3.55;1.42;;;;;;;14.52;68.29;93039.81;1749247;79;21632;-91
2021/08/28 07:31:18;;;;;;;4.87;2.00;;;;;;;14.52;66.99;93043.16;1764563;79;21067;-91
2021/08/28 07:33:47;;;;;;;1.32;1.22;;;;;;;14.50;66.46;93052.38;1760405;80;21346;-90
2021/08/28 07:36:18;;;;;;;1.80;1.60;;;;;;;14.49;66.65;93059.81;1763989;79;20964;-88
2021/08/28 07:38:47;;;;;;;1.62;1.52;;;;;;;14.51;68.02;93051.94;1783917;79;21072;-90
2021/08/28 07:41:14;;;;;;;1.57;1.47;;;;;;;14.53;66.56;93049.55;1776653;79;21117;-93
2021/08/28 07:43:41;;;;;;;1.47;1.37;;;;;;;14.54;66.85;93048.34;1758768;77;21105;-90
2021/08/28 07:46:08;;;;;;;1.67;1.57;;;;;;;14.55;67.05;93057.32;1765717;77;22006;-89
2021/08/28 07:48:37;;;;;;;2.08;1.82;;;;;;;14.56;67.35;93058.28;1734775;79;21097;-92
2021/08/28 07:51:04;;;;;;;1.47;1.37;;;;;;;14.58;65.84;93051.00;1729488;79;21036;-90
2021/08/28 07:53:31;;;;;;;1.50;1.40;;;;;;;14.59;67.26;93051.16;1776235;79;21075;-92
2021/08/28 07:56:00;;;;;;;1.80;1.40;;;;;;;14.63;66.23;93049.70;1767122;80;21650;-91
2021/08/28 07:58:29;;;;;;;1.55;1.42;;;;;;;14.75;66.92;93044.31;1774241;79;21120;-89
2021/08/28 08:01:00;;;;;;;1.57;1.30;;;;;;;14.90;66.32;93049.42;1737074;79;21087;-90
2021/08/28 08:03:27;;;;;;;1.67;1.37;;;;;;;15.08;66.73;93041.48;1703174;81;21053;-90
2021/08/28 08:06:12;;;;;;;1.40;1.30;;;;;;;15.28;65.95;93050.33;1765512;80;21038;-89
2021/08/28 08:08:50;;;;;;;2.55;2.35;;;;;;;15.40;64.80;93046.69;1739428;81;21462;-88
2021/08/28 08:11:35;;;;;;;6.30;2.30;;;;;;;15.46;64.31;93034.77;1751369;79;21111;-92
2021/08/28 08:14:20;;;;;;;2.00;1.80;;;;;;;15.45;62.57;93040.66;1766463;79;21043;-92
2021/08/28 08:16:59;;;;;;;2.67;1.47;;;;;;;15.39;64.33;93034.20;1762815;79;21074;-88
2021/08/28 08:19:33;;;;;;;1.75;1.62;;;;;;;15.45;63.00;93034.58;1727756;75;21042;-89
2021/08/28 08:22:18;;;;;;;2.00;1.40;;;;;;;15.49;62.33;93032.50;1827579;75;21077;-90
2021/08/28 08:24:46;;;;;;;1.82;1.72;;;;;;;15.55;62.21;93030.01;1822818;76;21162;-87
2021/08/28 08:27:17;;;;;;;1.42;1.32;;;;;;;15.57;62.03;93036.41;1800242;77;21085;-90
2021/08/28 08:29:46;;;;;;;1.65;1.55;;;;;;;15.55;60.70;93035.48;1824248;77;21055;-89
2021/08/28 08:32:29;;;;;;;1.25;1.15;;;;;;;15.44;59.78;93037.16;1824389;77;21014;-87
2021/08/28 08:34:57;;;;;;;1.70;1.40;;;;;;;15.25;60.98;93029.28;1821490;77;20983;-88
2021/08/28 08:37:25;;;;;;;1.72;1.47;;;;;;;15.15;61.55;93033.68;1824122;77;21127;-89
2021/08/28 08:39:51;;;;;;;1.55;1.45;;;;;;;15.05;62.31;93033.55;1821658;77;21046;-88
2021/08/28 08:42:22;;;;;;;1.30;1.20;;;;;;;14.95;60.70;93027.75;1824304;77;21195;-87
2021/08/28 08:44:49;;;;;;;1.37;1.20;;;;;;;14.85;61.58;93033.51;1830985;77;21057;-88
2021/08/28 08:47:16;;;;;;;1.40;1.25;;;;;;;14.88;62.59;93027.17;1826301;77;21158;-89
2021/08/28 08:49:43;;;;;;;2.22;1.27;;;;;;;14.97;61.90;93021.83;1824250;77;21082;-89
2021/08/28 08:52:11;;;;;;;1.30;1.20;;;;;;;15.02;62.06;93022.09;1824832;77;21167;-89
2021/08/28 08:54:40;;;;;;;1.60;1.50;;;;;;;15.03;60.91;93024.98;1816972;77;21186;-88
2021/08/28 08:57:07;;;;;;;1.52;1.42;;;;;;;14.97;60.02;93025.94;1824420;76;21004;-91
2021/08/28 08:59:33;;;;;;;1.17;1.07;;;;;;;14.88;59.81;93027.17;1803339;77;21440;-89
2021/08/28 09:02:02;;;;;;;1.57;1.47;;;;;;;14.83;59.72;93027.11;1824061;77;21111;-89
2021/08/28 09:04:46;;;;;;;1.30;1.20;;;;;;;14.89;60.94;93027.34;1823264;77;21014;-90
2021/08/28 09:07:14;;;;;;;1.30;1.20;;;;;;;15.03;60.07;93047.50;1811161;76;21077;-91
2021/08/28 09:09:40;;;;;;;1.20;1.10;;;;;;;15.04;58.45;93045.71;1787395;77;21512;-89
2021/08/28 09:12:11;;;;;;;1.72;1.40;;;;;;;14.97;58.46;93061.53;1798511;77;20978;-90
2021/08/28 09:14:37;;;;;;;1.00;0.90;;;;;;;14.87;59.61;93059.86;1802009;77;21103;-89
2021/08/28 09:17:19;;;;;;;1.50;1.40;;;;;;;14.81;60.58;93062.34;1811914;77;21168;-94
2021/08/28 09:19:47;;;;;;;1.45;1.35;;;;;;;14.75;60.70;93066.21;1823562;77;22371;-90
2021/08/28 09:22:29;;;;;;;1.47;1.17;;;;;;;14.73;61.79;93067.83;1824476;76;21161;-91
2021/08/28 09:24:59;;;;;;;1.85;1.20;;;;;;;14.72;61.45;93070.41;1822666;77;21044;-91
2021/08/28 09:27:42;;;;;;;2.12;1.60;;;;;;;14.72;62.47;93067.67;1804967;77;21089;-89
2021/08/28 09:30:25;;;;;;;3.50;2.72;;;;;;;14.74;62.36;93069.36;1793063;77;21466;-91
2021/08/28 09:33:06;;;;;;;1.98;1.77;;;;;;;14.72;63.03;93065.70;1830257;75;21017;-91
2021/08/28 09:35:43;;;;;;;1.85;1.50;;;;;;;14.72;63.57;93069.80;1808915;77;21057;-92
2021/08/28 09:38:14;;;;;;;1.17;1.07;;;;;;;14.75;64.13;93066.81;1765626;78;21061;-87
2021/08/28 09:40:47;;;;;;;1.45;1.35;;;;;;;14.79;64.31;93067.48;1750912;80;21083;-89
2021/08/28 09:43:19;;;;;;;1.80;1.70;;;;;;;14.81;63.70;93063.10;1798592;77;21064;-87
2021/08/28 09:45:47;;;;;;;1.02;1.00;;;;;;;14.80;63.11;93060.81;1773142;78;21071;-87
2021/08/28 09:48:15;;;;;;;1.37;1.27;;;;;;;14.82;64.28;93054.31;1767213;78;21051;-87
2021/08/28 09:50:47;;;;;;;2.92;1.40;;;;;;;14.85;64.03;93058.14;1790115;77;21715;-89
2021/08/28 09:53:21;;;;;;;;;;;;;;;14.90;64.85;93046.69;1795106;77;21074;-89
2021/08/28 09:56:00;;;;;;;1.55;1.20;;;;;;;14.94;63.84;93054.20;1767571;79;20455;-88
2021/08/28 09:58:32;;;;;;;3.17;1.70;;;;;;;14.99;63.90;93050.93;1787913;78;21604;-90
2021/08/28 10:01:03;;;;;;;1.57;1.47;;;;;;;15.01;60.56;93047.17;1791402;78;21082;-90
2021/08/28 10:03:30;;;;;;;1.55;1.40;;;;;;;15.02;63.03;93052.20;1786242;77;21387;-89
2021/08/28 10:05:56;;;;;;;1.30;1.20;;;;;;;15.08;62.40;93049.70;1816932;77;20971;-88
2021/08/28 10:08:24;;;;;;;2.42;1.47;;;;;;;15.12;60.34;93046.28;1792133;77;21458;-87
2021/08/28 10:10:51;;;;;;;1.20;1.10;;;;;;;15.17;59.65;93047.72;1776778;78;21077;-87
2021/08/28 10:13:21;;;;;;;1.37;1.30;;;;;;;15.29;60.93;93045.02;1782133;79;22005;-87
2021/08/28 10:15:48;;;;;;;2.27;1.70;;;;;;;15.45;60.48;93044.78;1791024;77;21023;-90
2021/08/28 10:18:15;;;;;;;1.47;1.15;;;;;;;15.55;57.58;93037.63;1817836;77;21091;-90
2021/08/28 10:20:41;;;;;;;2.80;1.27;;;;;;;15.55;57.55;93036.86;1755630;79;21073;-90
2021/08/28 10:23:08;;;;;;;2.02;1.62;;;;;;;15.55;58.50;93046.45;1791069;76;21033;-89
2021/08/28 10:25:37;;;;;;;1.25;1.00;;;;;;;15.57;58.73;93054.22;1833555;76;21054;-91
2021/08/28 10:28:06;;;;;;;1.12;1.05;;;;;;;15.59;58.55;93063.56;1794941;77;21568;-90
2021/08/28 10:30:33;;;;;;;3.05;1.25;;;;;;;15.60;57.72;93068.44;1773943;78;21124;-87
2021/08/28 10:32:59;;;;;;;2.33;2.17;;;;;;;15.60;58.57;93072.54;1762659;78;21059;-88
2021/08/28 10:35:25;;;;;;;3.77;2.58;;;;;;;15.57;58.27;93073.41;1763846;78;21774;-90
2021/08/28 10:37:52;;;;;;;2.58;2.37;;;;;;;15.51;58.64;93077.30;1766240;79;21014;-88
2021/08/28 10:40:24;;;;;;;2.47;2.27;;;;;;;15.47;58.90;93073.89;1770993;78;21038;-90
2021/08/28 10:42:53;;;;;;;1.42;1.32;;;;;;;15.45;59.41;93077.66;1782331;78;21113;-90
2021/08/28 10:45:31;;;;;;;1.40;1.30;;;;;;;15.47;59.53;93079.38;1812915;76;21635;-90
2021/08/28 10:48:08;;;;;;;;;;;;;;;15.47;58.95;93080.74;1798706;77;21008;-87
2021/08/28 10:50:40;;;;;;;1.30;1.20;;;;;;;15.47;57.40;93074.66;1812519;76;20176;-89
2021/08/28 10:53:08;;;;;;;4.85;1.32;;;;;;;15.51;58.28;93066.34;1783813;77;21579;-90
2021/08/28 10:55:45;;;;;;;1.02;0.93;;;;;;;15.53;58.26;93057.06;1797710;77;21114;-90
2021/08/28 10:58:17;;;;;;;1.30;1.20;;;;;;;15.60;57.59;93061.58;1841886;76;21311;-88
2021/08/28 11:00:55;;;;;;;1.30;1.07;;;;;;;15.70;56.68;93072.87;1816815;76;21050;-90
2021/08/28 11:03:35;;;;;;;1.10;1.02;;;;;;;15.79;54.56;93067.50;1837013;75;21508;-87
2021/08/28 11:06:19;;;;;;;2.87;1.10;;;;;;;15.83;54.23;93066.03;1822423;76;21510;-89
2021/08/28 11:08:56;;;;;;;2.65;1.62;;;;;;;15.83;55.10;93053.09;1792516;77;21316;-88
2021/08/28 11:11:36;;;;;;;1.20;1.10;;;;;;;15.87;56.40;93039.27;1767388;79;21073;-87
2021/08/28 11:14:06;;;;;;;0.90;0.90;;;;;;;15.91;56.75;93044.05;1770721;78;21014;-89
2021/08/28 11:16:48;;;;;;;1.22;1.12;;;;;;;15.94;57.60;93046.68;1743418;76;21139;-87
2021/08/28 11:19:29;;;;;;;1.05;0.95;;;;;;;16.03;57.82;93048.79;1857670;75;21057;-89
2021/08/28 11:21:55;;;;;;;1.10;1.00;;;;;;;16.08;55.73;93055.70;1799754;77;21134;-89
2021/08/28 11:24:23;;;;;;;1.67;1.35;;;;;;;16.14;54.82;93051.20;1827998;76;21638;-88
2021/08/28 11:26:54;;;;;;;1.67;1.42;;;;;;;16.17;55.75;93062.66;1834198;75;21046;-87
2021/08/28 11:29:44;;;;;;;1.35;1.25;;;;;;;16.15;54.94;93058.22;1838426;75;21074;-91
2021/08/28 11:32:19;;;;;;;1.98;1.30;;;;;;;16.11;54.49;93056.95;1809706;77;21212;-89
2021/08/28 11:34:54;;;;;;;0.85;0.85;;;;;;;16.09;55.52;93066.22;1780321;77;22455;-90
2021/08/28 11:37:36;;;;;;;1.47;0.98;;;;;;;16.12;56.09;93062.60;1803188;77;21085;-88
2021/08/28 11:40:24;;;;;;;0.90;0.90;;;;;;;16.16;55.28;93058.37;1818559;77;21017;-90
2021/08/28 11:42:51;;;;;;;1.12;1.02;;;;;;;16.16;55.04;93058.37;1783223;77;21545;-91
2021/08/28 11:45:18;;;;;;;1.10;1.02;;;;;;;16.16;55.52;93063.25;1779190;77;21081;-91
2021/08/28 11:47:45;;;;;;;1.17;1.07;;;;;;;16.26;56.92;93062.17;1775310;77;21111;-89
2021/08/28 11:50:12;;;;;;;1.37;1.27;;;;;;;16.41;55.00;93052.13;1780669;77;21137;-91
2021/08/28 11:52:39;;;;;;;3.33;1.20;;;;;;;16.47;55.09;93049.76;1813486;77;21089;-90
2021/08/28 11:55:09;;;;;;;1.30;1.20;;;;;;;16.52;56.23;93051.17;1762323;78;21080;-89
2021/08/28 11:57:37;;;;;;;1.40;1.30;;;;;;;16.63;57.83;93050.22;1791320;77;21037;-89
2021/08/28 12:00:08;;;;;;;1.60;1.50;;;;;;;16.75;56.66;93052.19;1804647;77;21107;-88
2021/08/28 12:02:40;;;;;;;1.32;1.22;;;;;;;16.78;56.12;93053.91;1800500;76;21045;-88
2021/08/28 12:05:12;;;;;;;1.40;1.30;;;;;;;16.73;54.30;93049.11;1815678;76;21154;-89
2021/08/28 12:07:39;;;;;;;2.33;1.10;;;;;;;16.69;55.11;93044.31;1772379;79;21023;-90
2021/08/28 12:10:07;;;;;;;1.70;1.60;;;;;;;16.63;54.90;93046.70;1813520;77;21281;-88
2021/08/28 12:12:34;;;;;;;2.30;1.30;;;;;;;16.55;55.13;93039.89;1811742;77;21364;-89
2021/08/28 12:15:05;;;;;;;3.27;2.20;;;;;;;16.49;54.80;93032.23;1810505;77;21653;-90